ASA64 PANC-PAJN
Flight info
| Callsign | ASA64 |
|---|---|
| Flight time | 1h 21m |
| Altitude | 39000 |
| Route | JOH J501 YAK FAKES ASORT |
| Aircraft | B738/M-SDE2E3FGHIRWXY/LB1 |
Departure
| Time | 2026-05-06 14:11 |
|---|---|
| Airport | Ted Stevens Anchorage International Airport (PANC) |
Arrival
| Time | 2026-05-06 15:32 |
|---|---|
| Airport | Juneau International Airport (PAJN) |
| Time | Latitude | Longitude | Altitude | Speed | Heading |
|---|---|---|---|---|---|
| 2026-05-06 13:41 | 61.17468 | -149.98424 | 110 ft | 0 kts | 82° |
| 2026-05-06 13:58 | 61.17467 | -149.98433 | 108 ft | 4 kts | 83° |
| 2026-05-06 13:59 | 61.17464 | -149.98487 | 109 ft | 4 kts | 87° |
| 2026-05-06 13:59 | 61.17465 | -149.98541 | 106 ft | 4 kts | 104° |
| 2026-05-06 13:59 | 61.17476 | -149.98588 | 106 ft | 4 kts | 143° |
| 2026-05-06 13:59 | 61.17484 | -149.98599 | 107 ft | 2 kts | 160° |
| 2026-05-06 14:03 | 61.17483 | -149.98598 | 107 ft | 1 kts | 160° |
| 2026-05-06 14:03 | 61.17440 | -149.98569 | 108 ft | 9 kts | 169° |
| 2026-05-06 14:03 | 61.17380 | -149.98611 | 107 ft | 9 kts | 212° |
| 2026-05-06 14:04 | 61.17324 | -149.98688 | 109 ft | 11 kts | 213° |
| 2026-05-06 14:04 | 61.17252 | -149.98784 | 110 ft | 14 kts | 213° |
| 2026-05-06 14:04 | 61.17185 | -149.98923 | 112 ft | 13 kts | 230° |
| 2026-05-06 14:04 | 61.17132 | -149.98984 | 113 ft | 9 kts | 136° |
| 2026-05-06 14:05 | 61.17118 | -149.98847 | 112 ft | 12 kts | 96° |
| 2026-05-06 14:05 | 61.17117 | -149.98663 | 115 ft | 13 kts | 90° |
| 2026-05-06 14:05 | 61.17117 | -149.98407 | 114 ft | 22 kts | 89° |
| 2026-05-06 14:05 | 61.17117 | -149.98081 | 114 ft | 22 kts | 90° |
| 2026-05-06 14:06 | 61.17117 | -149.97762 | 110 ft | 22 kts | 90° |
| 2026-05-06 14:06 | 61.17120 | -149.97452 | 105 ft | 21 kts | 86° |
| 2026-05-06 14:06 | 61.17126 | -149.97174 | 100 ft | 17 kts | 90° |
| 2026-05-06 14:06 | 61.17127 | -149.96929 | 97 ft | 13 kts | 90° |
| 2026-05-06 14:07 | 61.17099 | -149.96810 | 97 ft | 10 kts | 158° |
| 2026-05-06 14:07 | 61.17029 | -149.96805 | 100 ft | 10 kts | 180° |
| 2026-05-06 14:07 | 61.16952 | -149.96806 | 99 ft | 11 kts | 184° |
| 2026-05-06 14:07 | 61.16898 | -149.96936 | 98 ft | 13 kts | 248° |
| 2026-05-06 14:08 | 61.16884 | -149.97005 | 99 ft | 0 kts | 248° |
| 2026-05-06 14:09 | 61.16884 | -149.97006 | 98 ft | 1 kts | 248° |
| 2026-05-06 14:09 | 61.16869 | -149.97087 | 101 ft | 11 kts | 248° |
| 2026-05-06 14:10 | 61.16832 | -149.97275 | 104 ft | 15 kts | 247° |
| 2026-05-06 14:10 | 61.16789 | -149.97461 | 110 ft | 14 kts | 268° |
| 2026-05-06 14:10 | 61.16788 | -149.97742 | 113 ft | 38 kts | 270° |
| 2026-05-06 14:10 | 61.16787 | -149.98796 | 122 ft | 107 kts | 270° |
| 2026-05-06 14:11 | 61.16783 | -150.00736 | 181 ft | 156 kts | 269° |
| 2026-05-06 14:11 | 61.16787 | -150.03021 | 819 ft | 160 kts | 269° |
| 2026-05-06 14:11 | 61.16788 | -150.05345 | 1572 ft | 161 kts | 268° |
| 2026-05-06 14:11 | 61.16766 | -150.07700 | 2196 ft | 175 kts | 259° |
| 2026-05-06 14:12 | 61.16112 | -150.10007 | 2496 ft | 202 kts | 223° |
| 2026-05-06 14:12 | 61.15044 | -150.12160 | 2750 ft | 224 kts | 224° |
| 2026-05-06 14:12 | 61.13884 | -150.14572 | 3037 ft | 247 kts | 224° |
| 2026-05-06 14:12 | 61.12646 | -150.17157 | 3716 ft | 256 kts | 224° |
| 2026-05-06 14:13 | 61.11358 | -150.19714 | 4676 ft | 256 kts | 214° |
| 2026-05-06 14:13 | 61.09697 | -150.20902 | 5539 ft | 257 kts | 179° |
| 2026-05-06 14:13 | 61.08000 | -150.19886 | 6396 ft | 260 kts | 146° |
| 2026-05-06 14:13 | 61.06664 | -150.17327 | 7213 ft | 265 kts | 135° |
| 2026-05-06 14:14 | 61.05392 | -150.14585 | 7972 ft | 270 kts | 134° |
| 2026-05-06 14:14 | 61.04315 | -150.11379 | 8736 ft | 278 kts | 109° |
| 2026-05-06 14:14 | 61.04024 | -150.07418 | 9587 ft | 282 kts | 95° |
| 2026-05-06 14:14 | 61.03896 | -150.03352 | 10328 ft | 286 kts | 94° |
| 2026-05-06 14:15 | 61.03766 | -149.99221 | 11106 ft | 290 kts | 94° |
| 2026-05-06 14:15 | 61.03632 | -149.94974 | 11529 ft | 308 kts | 94° |
| 2026-05-06 14:15 | 61.03486 | -149.90389 | 11766 ft | 331 kts | 94° |
| 2026-05-06 14:15 | 61.03330 | -149.85572 | 12318 ft | 341 kts | 94° |
| 2026-05-06 14:16 | 61.03169 | -149.80650 | 13108 ft | 345 kts | 94° |
| 2026-05-06 14:16 | 61.03004 | -149.75696 | 13933 ft | 348 kts | 94° |
| 2026-05-06 14:16 | 61.02836 | -149.70685 | 14699 ft | 352 kts | 94° |
| 2026-05-06 14:16 | 61.02663 | -149.65610 | 15479 ft | 355 kts | 94° |
| 2026-05-06 14:17 | 61.02489 | -149.60491 | 16255 ft | 359 kts | 95° |
| 2026-05-06 14:17 | 61.02315 | -149.55385 | 17021 ft | 363 kts | 95° |
| 2026-05-06 14:17 | 61.02258 | -149.50139 | 17761 ft | 369 kts | 90° |
| 2026-05-06 14:17 | 61.02354 | -149.44821 | 18460 ft | 374 kts | 88° |
| 2026-05-06 14:18 | 61.02427 | -149.39447 | 19116 ft | 377 kts | 91° |
| 2026-05-06 14:18 | 61.02279 | -149.34011 | 19786 ft | 380 kts | 98° |
| 2026-05-06 14:18 | 61.01863 | -149.28613 | 20429 ft | 383 kts | 103° |
| 2026-05-06 14:18 | 61.01223 | -149.23268 | 21075 ft | 385 kts | 107° |
| 2026-05-06 14:19 | 61.00425 | -149.17966 | 21696 ft | 389 kts | 110° |
| 2026-05-06 14:19 | 60.99524 | -149.12690 | 22323 ft | 392 kts | 111° |
| 2026-05-06 14:19 | 60.98557 | -149.07402 | 22940 ft | 396 kts | 112° |
| 2026-05-06 14:19 | 60.97551 | -149.02085 | 23543 ft | 399 kts | 113° |
| 2026-05-06 14:20 | 60.96538 | -148.96818 | 24028 ft | 403 kts | 113° |
| 2026-05-06 14:20 | 60.95495 | -148.91434 | 24478 ft | 406 kts | 113° |
| 2026-05-06 14:20 | 60.94442 | -148.86015 | 24955 ft | 410 kts | 114° |
| 2026-05-06 14:20 | 60.93378 | -148.80554 | 25422 ft | 413 kts | 114° |
| 2026-05-06 14:21 | 60.92303 | -148.75044 | 25875 ft | 416 kts | 114° |
| 2026-05-06 14:21 | 60.91218 | -148.69487 | 26320 ft | 420 kts | 114° |
| 2026-05-06 14:21 | 60.90122 | -148.63891 | 26735 ft | 423 kts | 114° |
| 2026-05-06 14:21 | 60.89018 | -148.58261 | 27154 ft | 427 kts | 114° |
| 2026-05-06 14:22 | 60.88279 | -148.54503 | 27438 ft | 429 kts | 114° |
| 2026-05-06 14:22 | 60.87156 | -148.48804 | 27863 ft | 433 kts | 114° |
| 2026-05-06 14:22 | 60.86022 | -148.43067 | 28285 ft | 436 kts | 115° |
| 2026-05-06 14:22 | 60.84876 | -148.37281 | 28672 ft | 439 kts | 115° |
| 2026-05-06 14:23 | 60.83718 | -148.31455 | 29047 ft | 442 kts | 115° |
| 2026-05-06 14:23 | 60.82548 | -148.25587 | 29394 ft | 445 kts | 115° |
| 2026-05-06 14:23 | 60.81371 | -148.19695 | 29755 ft | 448 kts | 115° |
| 2026-05-06 14:23 | 60.80179 | -148.13755 | 30085 ft | 451 kts | 115° |
| 2026-05-06 14:24 | 60.78979 | -148.07784 | 30355 ft | 454 kts | 115° |
| 2026-05-06 14:24 | 60.77767 | -148.01778 | 30607 ft | 457 kts | 115° |
| 2026-05-06 14:24 | 60.76558 | -147.95803 | 30853 ft | 461 kts | 115° |
| 2026-05-06 14:24 | 60.75327 | -147.89734 | 31094 ft | 463 kts | 115° |
| 2026-05-06 14:25 | 60.74087 | -147.83639 | 31347 ft | 466 kts | 115° |
| 2026-05-06 14:25 | 60.72836 | -147.77506 | 31666 ft | 467 kts | 115° |
| 2026-05-06 14:25 | 60.71584 | -147.71389 | 32021 ft | 467 kts | 115° |
| 2026-05-06 14:25 | 60.70331 | -147.65282 | 32338 ft | 467 kts | 116° |
| 2026-05-06 14:26 | 60.69069 | -147.59154 | 32629 ft | 469 kts | 116° |
| 2026-05-06 14:26 | 60.67801 | -147.53019 | 32903 ft | 470 kts | 116° |
| 2026-05-06 14:26 | 60.66529 | -147.46878 | 33236 ft | 470 kts | 116° |
| 2026-05-06 14:26 | 60.65255 | -147.40745 | 33576 ft | 470 kts | 116° |
| 2026-05-06 14:27 | 60.63977 | -147.34614 | 33894 ft | 471 kts | 116° |
| 2026-05-06 14:27 | 60.62691 | -147.28463 | 34150 ft | 471 kts | 116° |
| 2026-05-06 14:27 | 60.61402 | -147.22317 | 34429 ft | 471 kts | 116° |
| 2026-05-06 14:27 | 60.60131 | -147.16270 | 34709 ft | 471 kts | 116° |
| 2026-05-06 14:28 | 60.58840 | -147.10149 | 34972 ft | 471 kts | 116° |
| 2026-05-06 14:28 | 60.57543 | -147.04018 | 35229 ft | 470 kts | 116° |
| 2026-05-06 14:28 | 60.56243 | -146.97889 | 35529 ft | 469 kts | 116° |
| 2026-05-06 14:28 | 60.54948 | -146.91803 | 35772 ft | 470 kts | 116° |
| 2026-05-06 14:29 | 60.53645 | -146.85697 | 35993 ft | 471 kts | 116° |
| 2026-05-06 14:29 | 60.52340 | -146.79600 | 36234 ft | 471 kts | 116° |
| 2026-05-06 14:29 | 60.51035 | -146.73510 | 36498 ft | 470 kts | 116° |
| 2026-05-06 14:29 | 60.49727 | -146.67430 | 36743 ft | 470 kts | 116° |
| 2026-05-06 14:30 | 60.48438 | -146.61389 | 36967 ft | 471 kts | 114° |
| 2026-05-06 14:30 | 60.47436 | -146.55038 | 37177 ft | 475 kts | 106° |
| 2026-05-06 14:30 | 60.46704 | -146.48490 | 37432 ft | 475 kts | 105° |
| 2026-05-06 14:30 | 60.46012 | -146.41938 | 37640 ft | 476 kts | 104° |
| 2026-05-06 14:31 | 60.45321 | -146.35385 | 37877 ft | 476 kts | 105° |
| 2026-05-06 14:31 | 60.44617 | -146.28827 | 38089 ft | 476 kts | 105° |
| 2026-05-06 14:31 | 60.43897 | -146.22279 | 38300 ft | 476 kts | 105° |
| 2026-05-06 14:31 | 60.43165 | -146.15751 | 38520 ft | 476 kts | 105° |
| 2026-05-06 14:32 | 60.42433 | -146.09300 | 38706 ft | 476 kts | 105° |
| 2026-05-06 14:32 | 60.41685 | -146.02775 | 38867 ft | 476 kts | 105° |
| 2026-05-06 14:32 | 60.40934 | -145.96247 | 38968 ft | 477 kts | 105° |
| 2026-05-06 14:32 | 60.40176 | -145.89699 | 38972 ft | 479 kts | 106° |
| 2026-05-06 14:33 | 60.38715 | -145.77131 | 38979 ft | 477 kts | 106° |
| 2026-05-06 14:33 | 60.37189 | -145.64108 | 38978 ft | 474 kts | 106° |
| 2026-05-06 14:34 | 60.35670 | -145.51271 | 38991 ft | 472 kts | 106° |
| 2026-05-06 14:34 | 60.34125 | -145.38314 | 38999 ft | 470 kts | 106° |
| 2026-05-06 14:35 | 60.32580 | -145.25496 | 39004 ft | 470 kts | 107° |
| 2026-05-06 14:35 | 60.31026 | -145.12735 | 39003 ft | 471 kts | 107° |
| 2026-05-06 14:36 | 60.29450 | -144.99881 | 38988 ft | 472 kts | 107° |
| 2026-05-06 14:36 | 60.27860 | -144.87014 | 39008 ft | 474 kts | 107° |
| 2026-05-06 14:37 | 60.26253 | -144.74110 | 39021 ft | 475 kts | 107° |
| 2026-05-06 14:37 | 60.24626 | -144.61196 | 39014 ft | 477 kts | 107° |
| 2026-05-06 14:38 | 60.22976 | -144.48224 | 39017 ft | 478 kts | 107° |
| 2026-05-06 14:38 | 60.21321 | -144.35312 | 38998 ft | 479 kts | 107° |
| 2026-05-06 14:39 | 60.19646 | -144.22341 | 39013 ft | 479 kts | 108° |
| 2026-05-06 14:39 | 60.17959 | -144.09386 | 39013 ft | 479 kts | 108° |
| 2026-05-06 14:40 | 60.16263 | -143.96468 | 39017 ft | 478 kts | 108° |
| 2026-05-06 14:40 | 60.14555 | -143.83578 | 39018 ft | 477 kts | 108° |
| 2026-05-06 14:41 | 60.12850 | -143.70812 | 39017 ft | 476 kts | 108° |
| 2026-05-06 14:41 | 60.11123 | -143.57989 | 39019 ft | 475 kts | 108° |
| 2026-05-06 14:42 | 60.09390 | -143.45229 | 39026 ft | 474 kts | 108° |
| 2026-05-06 14:42 | 60.07648 | -143.32498 | 39025 ft | 473 kts | 108° |
| 2026-05-06 14:43 | 60.05895 | -143.19799 | 39036 ft | 473 kts | 108° |
| 2026-05-06 14:43 | 60.04133 | -143.07134 | 39036 ft | 473 kts | 109° |
| 2026-05-06 14:44 | 60.02357 | -142.94467 | 39033 ft | 472 kts | 109° |
| 2026-05-06 14:45 | 59.99672 | -142.75507 | 39051 ft | 473 kts | 109° |
| 2026-05-06 14:45 | 59.97875 | -142.62937 | 39052 ft | 474 kts | 109° |
| 2026-05-06 14:46 | 59.96050 | -142.50269 | 39055 ft | 475 kts | 109° |
| 2026-05-06 14:46 | 59.94211 | -142.37606 | 39061 ft | 475 kts | 109° |
| 2026-05-06 14:47 | 59.92357 | -142.24933 | 39059 ft | 476 kts | 109° |
| 2026-05-06 14:47 | 59.90498 | -142.12323 | 39070 ft | 477 kts | 109° |
| 2026-05-06 14:48 | 59.88616 | -141.99658 | 39069 ft | 477 kts | 110° |
| 2026-05-06 14:48 | 59.86717 | -141.86976 | 39074 ft | 478 kts | 110° |
| 2026-05-06 14:49 | 59.84806 | -141.74302 | 39073 ft | 478 kts | 110° |
| 2026-05-06 14:49 | 59.82883 | -141.61647 | 39082 ft | 477 kts | 110° |
| 2026-05-06 14:50 | 59.80949 | -141.49016 | 39083 ft | 477 kts | 110° |
| 2026-05-06 14:50 | 59.79007 | -141.36420 | 39088 ft | 477 kts | 110° |
| 2026-05-06 14:51 | 59.77059 | -141.23882 | 39092 ft | 477 kts | 110° |
| 2026-05-06 14:51 | 59.75079 | -141.11231 | 39090 ft | 477 kts | 110° |
| 2026-05-06 14:52 | 59.73110 | -140.98742 | 39085 ft | 477 kts | 110° |
| 2026-05-06 14:52 | 59.71115 | -140.86176 | 39105 ft | 477 kts | 111° |
| 2026-05-06 14:53 | 59.69122 | -140.73719 | 39098 ft | 477 kts | 111° |
| 2026-05-06 14:53 | 59.67108 | -140.61215 | 39103 ft | 477 kts | 111° |
| 2026-05-06 14:54 | 59.65066 | -140.48626 | 39104 ft | 477 kts | 111° |
| 2026-05-06 14:54 | 59.63040 | -140.36219 | 39093 ft | 477 kts | 111° |
| 2026-05-06 14:55 | 59.60988 | -140.23748 | 39105 ft | 477 kts | 111° |
| 2026-05-06 14:55 | 59.58926 | -140.11299 | 39115 ft | 477 kts | 111° |
| 2026-05-06 14:56 | 59.56851 | -139.98860 | 39117 ft | 477 kts | 112° |
| 2026-05-06 14:56 | 59.54764 | -139.86429 | 39117 ft | 477 kts | 112° |
| 2026-05-06 14:57 | 59.52677 | -139.74072 | 39092 ft | 478 kts | 112° |
| 2026-05-06 14:57 | 59.50393 | -139.61742 | 39094 ft | 473 kts | 121° |
| 2026-05-06 14:58 | 59.47280 | -139.50477 | 39110 ft | 471 kts | 123° |
| 2026-05-06 14:58 | 59.44052 | -139.39268 | 39118 ft | 471 kts | 123° |
| 2026-05-06 14:59 | 59.40849 | -139.28006 | 39121 ft | 472 kts | 123° |
| 2026-05-06 14:59 | 59.37668 | -139.16725 | 39104 ft | 472 kts | 123° |
| 2026-05-06 15:00 | 59.34488 | -139.05459 | 39125 ft | 472 kts | 123° |
| 2026-05-06 15:00 | 59.31316 | -138.94280 | 39149 ft | 472 kts | 123° |
| 2026-05-06 15:01 | 59.28113 | -138.83057 | 39148 ft | 472 kts | 123° |
| 2026-05-06 15:01 | 59.24888 | -138.71819 | 38800 ft | 479 kts | 123° |
| 2026-05-06 15:01 | 59.23249 | -138.66131 | 38187 ft | 478 kts | 123° |
| 2026-05-06 15:02 | 59.21616 | -138.60467 | 37583 ft | 476 kts | 124° |
| 2026-05-06 15:02 | 59.19992 | -138.54849 | 36994 ft | 475 kts | 124° |
| 2026-05-06 15:02 | 59.18367 | -138.49244 | 36408 ft | 475 kts | 124° |
| 2026-05-06 15:02 | 59.16740 | -138.43646 | 35794 ft | 475 kts | 124° |
| 2026-05-06 15:03 | 59.15126 | -138.38111 | 35132 ft | 477 kts | 124° |
| 2026-05-06 15:03 | 59.13491 | -138.32512 | 34680 ft | 473 kts | 124° |
| 2026-05-06 15:03 | 59.11864 | -138.26956 | 34184 ft | 471 kts | 124° |
| 2026-05-06 15:03 | 59.10243 | -138.21428 | 33635 ft | 468 kts | 124° |
| 2026-05-06 15:04 | 59.08631 | -138.15946 | 33131 ft | 464 kts | 125° |
| 2026-05-06 15:04 | 59.07032 | -138.10520 | 32664 ft | 460 kts | 125° |
| 2026-05-06 15:04 | 59.05447 | -138.05157 | 32185 ft | 455 kts | 126° |
| 2026-05-06 15:04 | 59.03878 | -137.99860 | 31778 ft | 450 kts | 126° |
| 2026-05-06 15:05 | 59.02315 | -137.94597 | 31325 ft | 447 kts | 126° |
| 2026-05-06 15:05 | 59.00764 | -137.89386 | 30892 ft | 444 kts | 126° |
| 2026-05-06 15:05 | 58.99239 | -137.84272 | 30459 ft | 442 kts | 126° |
| 2026-05-06 15:05 | 58.97697 | -137.79114 | 29971 ft | 439 kts | 127° |
| 2026-05-06 15:06 | 58.96175 | -137.74028 | 29469 ft | 431 kts | 127° |
| 2026-05-06 15:06 | 58.94684 | -137.69047 | 28735 ft | 425 kts | 127° |
| 2026-05-06 15:06 | 58.93201 | -137.64115 | 28076 ft | 421 kts | 127° |
| 2026-05-06 15:06 | 58.91729 | -137.59230 | 27617 ft | 419 kts | 127° |
| 2026-05-06 15:07 | 58.90257 | -137.54361 | 27181 ft | 418 kts | 127° |
| 2026-05-06 15:07 | 58.88791 | -137.49518 | 26706 ft | 417 kts | 127° |
| 2026-05-06 15:07 | 58.87344 | -137.44744 | 26291 ft | 414 kts | 127° |
| 2026-05-06 15:07 | 58.86363 | -137.41510 | 25995 ft | 412 kts | 127° |
| 2026-05-06 15:08 | 58.84915 | -137.36748 | 25576 ft | 410 kts | 127° |
| 2026-05-06 15:08 | 58.83004 | -137.30479 | 25001 ft | 407 kts | 127° |
| 2026-05-06 15:08 | 58.82035 | -137.27304 | 24740 ft | 405 kts | 127° |
| 2026-05-06 15:08 | 58.80618 | -137.22675 | 24298 ft | 405 kts | 127° |
| 2026-05-06 15:09 | 58.79186 | -137.18007 | 23874 ft | 403 kts | 127° |
| 2026-05-06 15:09 | 58.77760 | -137.13360 | 23416 ft | 401 kts | 127° |
| 2026-05-06 15:09 | 58.76340 | -137.08747 | 22961 ft | 399 kts | 127° |
| 2026-05-06 15:09 | 58.74926 | -137.04160 | 22444 ft | 396 kts | 127° |
| 2026-05-06 15:10 | 58.73529 | -136.99638 | 22097 ft | 391 kts | 127° |
| 2026-05-06 15:10 | 58.72143 | -136.95153 | 21664 ft | 387 kts | 127° |
| 2026-05-06 15:10 | 58.70785 | -136.90774 | 21274 ft | 384 kts | 127° |
| 2026-05-06 15:10 | 58.69416 | -136.86368 | 20864 ft | 382 kts | 127° |
| 2026-05-06 15:11 | 58.68055 | -136.81997 | 20460 ft | 380 kts | 127° |
| 2026-05-06 15:11 | 58.66699 | -136.77651 | 20062 ft | 378 kts | 127° |
| 2026-05-06 15:11 | 58.65350 | -136.73335 | 19670 ft | 376 kts | 127° |
| 2026-05-06 15:11 | 58.64004 | -136.69038 | 19278 ft | 375 kts | 127° |
| 2026-05-06 15:12 | 58.62661 | -136.64757 | 18867 ft | 374 kts | 127° |
| 2026-05-06 15:12 | 58.61324 | -136.60500 | 18470 ft | 371 kts | 127° |
| 2026-05-06 15:12 | 58.59995 | -136.56278 | 18039 ft | 369 kts | 127° |
| 2026-05-06 15:12 | 58.58670 | -136.52075 | 17572 ft | 366 kts | 127° |
| 2026-05-06 15:13 | 58.57361 | -136.47926 | 17217 ft | 361 kts | 127° |
| 2026-05-06 15:13 | 58.56064 | -136.43826 | 16825 ft | 358 kts | 127° |
| 2026-05-06 15:13 | 58.54778 | -136.39771 | 16433 ft | 356 kts | 127° |
| 2026-05-06 15:13 | 58.53492 | -136.35722 | 15933 ft | 355 kts | 126° |
| 2026-05-06 15:14 | 58.52230 | -136.31755 | 15524 ft | 351 kts | 126° |
| 2026-05-06 15:14 | 58.50966 | -136.27786 | 15130 ft | 347 kts | 126° |
| 2026-05-06 15:14 | 58.49721 | -136.23881 | 14748 ft | 342 kts | 126° |
| 2026-05-06 15:14 | 58.48489 | -136.20025 | 14386 ft | 337 kts | 126° |
| 2026-05-06 15:15 | 58.47274 | -136.16227 | 14023 ft | 333 kts | 126° |
| 2026-05-06 15:15 | 58.46072 | -136.12479 | 13635 ft | 328 kts | 126° |
| 2026-05-06 15:15 | 58.44886 | -136.08788 | 13252 ft | 323 kts | 126° |
| 2026-05-06 15:15 | 58.43718 | -136.05157 | 12897 ft | 321 kts | 126° |
| 2026-05-06 15:16 | 58.42545 | -136.01523 | 12546 ft | 321 kts | 126° |
| 2026-05-06 15:16 | 58.41362 | -135.97863 | 12207 ft | 327 kts | 126° |
| 2026-05-06 15:16 | 58.40153 | -135.94132 | 11856 ft | 332 kts | 125° |
| 2026-05-06 15:16 | 58.38943 | -135.90395 | 11491 ft | 329 kts | 125° |
| 2026-05-06 15:17 | 58.37753 | -135.86721 | 11121 ft | 323 kts | 125° |
| 2026-05-06 15:17 | 58.36595 | -135.83148 | 10781 ft | 318 kts | 125° |
| 2026-05-06 15:17 | 58.35442 | -135.79600 | 10441 ft | 313 kts | 124° |
| 2026-05-06 15:17 | 58.34317 | -135.76141 | 10308 ft | 301 kts | 124° |
| 2026-05-06 15:18 | 58.33235 | -135.72819 | 10170 ft | 290 kts | 125° |
| 2026-05-06 15:18 | 58.32191 | -135.69617 | 10044 ft | 280 kts | 125° |
| 2026-05-06 15:18 | 58.31179 | -135.66523 | 9857 ft | 272 kts | 125° |
| 2026-05-06 15:18 | 58.30188 | -135.63499 | 9613 ft | 267 kts | 125° |
| 2026-05-06 15:19 | 58.29205 | -135.60503 | 9357 ft | 268 kts | 125° |
| 2026-05-06 15:19 | 58.28212 | -135.57483 | 9098 ft | 272 kts | 125° |
| 2026-05-06 15:19 | 58.27197 | -135.54403 | 8837 ft | 277 kts | 125° |
| 2026-05-06 15:19 | 58.26170 | -135.51283 | 8542 ft | 278 kts | 125° |
| 2026-05-06 15:20 | 58.25153 | -135.48196 | 8278 ft | 273 kts | 125° |
| 2026-05-06 15:20 | 58.24154 | -135.45163 | 8010 ft | 268 kts | 125° |
| 2026-05-06 15:20 | 58.23172 | -135.42188 | 7768 ft | 263 kts | 125° |
| 2026-05-06 15:20 | 58.22207 | -135.39267 | 7508 ft | 259 kts | 125° |
| 2026-05-06 15:21 | 58.21260 | -135.36405 | 7280 ft | 254 kts | 125° |
| 2026-05-06 15:21 | 58.20322 | -135.33579 | 7036 ft | 254 kts | 125° |
| 2026-05-06 15:21 | 58.19373 | -135.30724 | 6811 ft | 258 kts | 125° |
| 2026-05-06 15:21 | 58.18460 | -135.27793 | 6565 ft | 265 kts | 115° |
| 2026-05-06 15:22 | 58.18243 | -135.24324 | 6371 ft | 269 kts | 80° |
| 2026-05-06 15:22 | 58.18825 | -135.20972 | 6138 ft | 268 kts | 66° |
| 2026-05-06 15:22 | 58.19606 | -135.17795 | 5916 ft | 260 kts | 64° |
| 2026-05-06 15:22 | 58.20353 | -135.14794 | 5824 ft | 242 kts | 65° |
| 2026-05-06 15:23 | 58.21035 | -135.11990 | 5709 ft | 226 kts | 65° |
| 2026-05-06 15:23 | 58.21655 | -135.09406 | 5583 ft | 209 kts | 66° |
| 2026-05-06 15:23 | 58.22237 | -135.06990 | 5419 ft | 193 kts | 62° |
| 2026-05-06 15:23 | 58.23135 | -135.05238 | 5055 ft | 181 kts | 21° |
| 2026-05-06 15:24 | 58.24307 | -135.04586 | 4893 ft | 174 kts | 7° |
| 2026-05-06 15:24 | 58.25473 | -135.04198 | 4800 ft | 169 kts | 6° |
| 2026-05-06 15:24 | 58.26639 | -135.03828 | 4731 ft | 170 kts | 6° |
| 2026-05-06 15:24 | 58.27808 | -135.03454 | 4657 ft | 171 kts | 6° |
| 2026-05-06 15:25 | 58.28986 | -135.03073 | 4574 ft | 171 kts | 6° |
| 2026-05-06 15:25 | 58.30161 | -135.02690 | 4511 ft | 172 kts | 6° |
| 2026-05-06 15:25 | 58.31346 | -135.02303 | 4412 ft | 174 kts | 6° |
| 2026-05-06 15:25 | 58.32547 | -135.01909 | 4237 ft | 174 kts | 7° |
| 2026-05-06 15:26 | 58.33733 | -135.01519 | 4059 ft | 171 kts | 7° |
| 2026-05-06 15:26 | 58.34887 | -135.01039 | 3872 ft | 171 kts | 22° |
| 2026-05-06 15:26 | 58.35657 | -134.99424 | 3751 ft | 169 kts | 79° |
| 2026-05-06 15:26 | 58.35773 | -134.97207 | 3637 ft | 171 kts | 86° |
| 2026-05-06 15:27 | 58.35894 | -134.94928 | 3470 ft | 172 kts | 90° |
| 2026-05-06 15:27 | 58.35914 | -134.92699 | 3290 ft | 166 kts | 94° |
| 2026-05-06 15:27 | 58.35903 | -134.90611 | 3141 ft | 150 kts | 95° |
| 2026-05-06 15:27 | 58.35890 | -134.88675 | 2963 ft | 144 kts | 95° |
| 2026-05-06 15:28 | 58.35878 | -134.86767 | 2830 ft | 144 kts | 95° |
| 2026-05-06 15:28 | 58.35866 | -134.84849 | 2692 ft | 147 kts | 95° |
| 2026-05-06 15:28 | 58.35855 | -134.82918 | 2488 ft | 144 kts | 95° |
| 2026-05-06 15:28 | 58.35845 | -134.81015 | 2287 ft | 142 kts | 95° |
| 2026-05-06 15:29 | 58.35835 | -134.79135 | 2108 ft | 142 kts | 94° |
| 2026-05-06 15:29 | 58.35825 | -134.77258 | 1915 ft | 141 kts | 94° |
| 2026-05-06 15:29 | 58.35816 | -134.75387 | 1720 ft | 141 kts | 94° |
| 2026-05-06 15:29 | 58.35807 | -134.73523 | 1528 ft | 140 kts | 94° |
| 2026-05-06 15:30 | 58.35798 | -134.71679 | 1331 ft | 138 kts | 93° |
| 2026-05-06 15:30 | 58.35790 | -134.69851 | 1147 ft | 138 kts | 93° |
| 2026-05-06 15:30 | 58.35782 | -134.68030 | 973 ft | 138 kts | 94° |
| 2026-05-06 15:30 | 58.35773 | -134.66156 | 785 ft | 141 kts | 93° |
| 2026-05-06 15:31 | 58.35765 | -134.64332 | 591 ft | 136 kts | 92° |
| 2026-05-06 15:31 | 58.35787 | -134.62578 | 394 ft | 130 kts | 88° |
| 2026-05-06 15:31 | 58.35833 | -134.60876 | 196 ft | 125 kts | 91° |
| 2026-05-06 15:32 | 58.35555 | -134.58050 | 31 ft | 70 kts | 105° |
| 2026-05-06 15:32 | 58.35471 | -134.57458 | 33 ft | 18 kts | 104° |
| 2026-05-06 15:32 | 58.35463 | -134.57303 | 35 ft | 8 kts | 56° |
| 2026-05-06 15:32 | 58.35513 | -134.57278 | 33 ft | 9 kts | 360° |
| 2026-05-06 15:33 | 58.35564 | -134.57357 | 33 ft | 12 kts | 278° |
| 2026-05-06 15:33 | 58.35593 | -134.57532 | 34 ft | 19 kts | 286° |
| 2026-05-06 15:33 | 58.35633 | -134.57822 | 32 ft | 24 kts | 284° |
| 2026-05-06 15:33 | 58.35675 | -134.58120 | 33 ft | 23 kts | 285° |
| 2026-05-06 15:34 | 58.35711 | -134.58377 | 32 ft | 19 kts | 285° |
| 2026-05-06 15:34 | 58.35730 | -134.58507 | 33 ft | 6 kts | 285° |
| 2026-05-06 15:34 | 58.35748 | -134.58587 | 33 ft | 8 kts | 314° |
| 2026-05-06 15:34 | 58.35794 | -134.58580 | 33 ft | 7 kts | 66° |
| 2026-05-06 15:35 | 58.35804 | -134.58527 | 33 ft | 5 kts | 63° |
| 2026-05-06 15:35 | 58.35829 | -134.58467 | 31 ft | 5 kts | 49° |
| 2026-05-06 15:35 | 58.35841 | -134.58441 | 33 ft | 1 kts | 49° |
| 2026-05-06 15:35 | 58.35845 | -134.58432 | 33 ft | 0 kts | 48° |